createdAt,value
2023-01-27T00:01:09.019Z,4.31
2023-01-27T00:03:37.712Z,4.12
2023-01-27T00:06:06.682Z,4.07
2023-01-27T00:08:34.522Z,4.24
2023-01-27T00:11:20.794Z,4.06
2023-01-27T00:13:48.474Z,4.16
2023-01-27T00:16:16.020Z,4.08
2023-01-27T00:18:43.755Z,4.13
2023-01-27T00:21:29.959Z,4.21
2023-01-27T00:24:15.882Z,4.07
2023-01-27T00:26:43.311Z,3.97
2023-01-27T00:29:10.648Z,3.99
2023-01-27T00:31:56.908Z,4.19
2023-01-27T00:34:24.299Z,4.29
2023-01-27T00:36:51.681Z,4.38
2023-01-27T00:39:19.106Z,4.48
2023-01-27T00:41:46.472Z,4.45
2023-01-27T00:44:14.084Z,4.55
2023-01-27T00:46:43.007Z,4.59
2023-01-27T00:49:13.456Z,4.50
2023-01-27T00:51:41.397Z,4.20
2023-01-27T00:54:09.344Z,4.42
2023-01-27T00:56:37.443Z,4.27
2023-01-27T00:59:05.299Z,4.28
2023-01-27T01:01:34.154Z,4.35
2023-01-27T01:04:01.768Z,4.29
2023-01-27T01:06:29.375Z,4.16
2023-01-27T01:08:58.112Z,4.25
2023-01-27T01:11:26.535Z,4.34
2023-01-27T01:13:56.295Z,4.31
2023-01-27T01:16:25.145Z,4.29
2023-01-27T01:18:52.944Z,4.32
2023-01-27T01:21:21.448Z,4.29
2023-01-27T01:23:48.922Z,4.36
2023-01-27T01:26:19.852Z,4.11
2023-01-27T01:28:48.303Z,4.04
2023-01-27T01:31:18.801Z,4.18
2023-01-27T01:33:47.724Z,3.91
2023-01-27T01:36:18.342Z,4.20
2023-01-27T01:38:46.710Z,4.12
2023-01-27T01:41:33.002Z,4.14
2023-01-27T01:44:19.963Z,4.02
2023-01-27T01:46:47.477Z,3.95
2023-01-27T01:49:18.179Z,4.02
2023-01-27T01:51:53.802Z,4.09
2023-01-27T01:54:25.898Z,3.93
2023-01-27T01:57:10.341Z,3.91
2023-01-27T02:00:02.097Z,4.00
2023-01-27T02:02:31.496Z,4.07
2023-01-27T02:05:06.478Z,4.05
2023-01-27T02:07:43.378Z,4.00
2023-01-27T02:10:12.710Z,4.04
2023-01-27T02:12:40.401Z,3.93
2023-01-27T02:15:10.166Z,3.93
2023-01-27T02:17:38.014Z,4.06
2023-01-27T02:20:09.440Z,4.05
2023-01-27T02:22:59.439Z,4.20
2023-01-27T02:25:35.497Z,3.98
2023-01-27T02:28:05.624Z,4.18
2023-01-27T02:30:33.858Z,3.99
2023-01-27T02:33:01.575Z,4.10
2023-01-27T02:35:37.768Z,3.62
2023-01-27T02:38:10.006Z,3.73
2023-01-27T02:40:38.010Z,3.56
2023-01-27T02:43:06.125Z,3.66
2023-01-27T02:45:33.710Z,3.75
2023-01-27T02:48:01.262Z,3.78
2023-01-27T02:50:29.042Z,3.71
2023-01-27T02:52:56.815Z,4.02
2023-01-27T02:55:24.302Z,4.19
2023-01-27T02:57:52.475Z,3.99
2023-01-27T03:00:38.392Z,3.77
2023-01-27T03:03:06.388Z,3.56
2023-01-27T03:05:33.956Z,3.83
2023-01-27T03:08:01.619Z,3.90
2023-01-27T03:10:29.238Z,4.06
2023-01-27T03:12:58.811Z,3.84
2023-01-27T03:15:44.849Z,3.84
2023-01-27T03:18:13.564Z,3.79
2023-01-27T03:20:48.786Z,3.87
2023-01-27T03:23:19.089Z,3.67
2023-01-27T03:25:51.624Z,3.67
2023-01-27T03:28:19.481Z,3.82
2023-01-27T03:31:19.741Z,4.07
2023-01-27T03:33:53.807Z,3.99
2023-01-27T03:37:06.271Z,3.89
2023-01-27T03:39:53.971Z,3.91
2023-01-27T03:42:40.138Z,4.02
2023-01-27T03:45:26.486Z,4.20
2023-01-27T03:47:54.054Z,3.71
2023-01-27T03:50:37.636Z,3.87
2023-01-27T03:53:05.676Z,3.76
2023-01-27T03:55:34.791Z,3.77
2023-01-27T03:58:18.548Z,3.95
2023-01-27T04:00:47.815Z,3.82
2023-01-27T04:03:33.854Z,3.78
2023-01-27T04:06:22.850Z,3.70
2023-01-27T04:08:50.445Z,3.79
2023-01-27T04:11:36.801Z,3.85
2023-01-27T04:14:05.769Z,4.12
2023-01-27T04:16:36.042Z,4.29
2023-01-27T04:19:08.508Z,4.42
2023-01-27T04:21:36.153Z,4.27
2023-01-27T04:24:04.410Z,4.25
2023-01-27T04:26:34.651Z,4.01
2023-01-27T04:29:02.701Z,3.90
2023-01-27T04:31:32.791Z,4.06
2023-01-27T04:34:00.716Z,4.12
2023-01-27T04:36:28.564Z,4.19
2023-01-27T04:38:56.103Z,4.10
2023-01-27T04:41:23.579Z,3.74
2023-01-27T04:43:51.118Z,3.73
2023-01-27T04:46:18.796Z,3.81
2023-01-27T04:48:46.211Z,3.98
2023-01-27T04:51:13.743Z,4.02
2023-01-27T04:53:41.232Z,4.00
2023-01-27T04:56:21.387Z,4.21
2023-01-27T04:58:49.539Z,4.17
2023-01-27T05:01:17.342Z,4.26
2023-01-27T05:03:44.964Z,3.95
2023-01-27T05:06:13.377Z,3.72
2023-01-27T05:08:41.117Z,3.67
2023-01-27T05:11:09.259Z,3.62
2023-01-27T05:13:37.641Z,3.61
2023-01-27T05:16:27.725Z,3.79
2023-01-27T05:18:56.363Z,3.96
2023-01-27T05:21:31.143Z,3.97
2023-01-27T05:23:58.713Z,3.84
2023-01-27T05:26:27.925Z,3.93
2023-01-27T05:28:58.239Z,4.03
2023-01-27T05:31:28.710Z,4.18
2023-01-27T05:33:59.093Z,4.02
2023-01-27T05:36:27.034Z,4.08
2023-01-27T05:38:55.393Z,3.96
2023-01-27T05:41:23.154Z,3.90
2023-01-27T05:43:56.004Z,3.79
2023-01-27T05:46:26.359Z,3.91
2023-01-27T05:48:56.120Z,3.86
2023-01-27T05:51:25.774Z,3.96
2023-01-27T05:53:55.192Z,4.13
2023-01-27T05:56:23.339Z,4.11
2023-01-27T05:58:50.957Z,4.01
2023-01-27T06:01:24.095Z,4.25
2023-01-27T06:03:51.720Z,4.18
2023-01-27T06:06:21.850Z,4.36
2023-01-27T06:08:49.720Z,4.07
2023-01-27T06:11:20.027Z,4.03
2023-01-27T06:13:48.540Z,4.24
2023-01-27T06:16:18.361Z,4.37
2023-01-27T06:18:46.990Z,4.23
2023-01-27T06:21:16.318Z,4.42
2023-01-27T06:23:43.768Z,4.24
2023-01-27T06:26:16.370Z,4.15
2023-01-27T06:28:44.679Z,4.16
2023-01-27T06:31:15.119Z,4.27
2023-01-27T06:33:43.206Z,4.23
2023-01-27T06:36:13.291Z,4.34
2023-01-27T06:38:41.753Z,4.32
2023-01-27T06:41:12.031Z,4.23
2023-01-27T06:43:44.919Z,4.26
2023-01-27T06:46:24.377Z,4.05
2023-01-27T06:48:51.987Z,3.95
2023-01-27T06:51:19.628Z,4.00
2023-01-27T06:53:47.083Z,4.10
2023-01-27T06:56:16.466Z,4.03
2023-01-27T06:58:44.964Z,4.05
2023-01-27T07:01:12.519Z,4.20
2023-01-27T07:03:42.910Z,4.26
2023-01-27T07:06:11.232Z,4.29
2023-01-27T07:08:38.795Z,4.25
2023-01-27T07:11:06.516Z,4.15
2023-01-27T07:13:34.096Z,3.99
2023-01-27T07:16:01.853Z,4.02
2023-01-27T07:18:29.790Z,4.07
2023-01-27T07:20:57.465Z,4.24
2023-01-27T07:23:27.712Z,4.23
2023-01-27T07:25:55.553Z,4.27
2023-01-27T07:28:26.135Z,4.16
2023-01-27T07:30:54.082Z,4.25
2023-01-27T07:33:21.688Z,4.43
2023-01-27T07:35:50.085Z,4.47
2023-01-27T07:38:20.135Z,4.46
2023-01-27T07:40:47.773Z,4.45
2023-01-27T07:43:15.473Z,4.50
2023-01-27T07:45:49.299Z,4.60
2023-01-27T07:48:19.682Z,5.01
2023-01-27T08:00:42.363Z,5.22
2023-01-27T08:46:30.360Z,5.98
2023-01-27T08:49:49.492Z,6.11
2023-01-27T08:52:56.353Z,6.26
2023-01-27T08:56:29.897Z,6.08
2023-01-27T09:09:16.009Z,5.97
2023-01-27T09:12:10.795Z,6.25
2023-01-27T09:14:42.405Z,6.49
2023-01-27T09:17:11.707Z,6.07
2023-01-27T09:19:40.480Z,5.95
2023-01-27T09:22:15.076Z,5.60
2023-01-27T09:24:48.801Z,5.29
2023-01-27T09:28:36.302Z,5.38
2023-01-27T09:31:04.941Z,5.15
2023-01-27T09:33:39.829Z,4.93
2023-01-27T09:36:18.709Z,5.12
2023-01-27T09:38:56.543Z,5.28
2023-01-27T09:42:05.060Z,4.94
2023-01-27T09:56:03.109Z,5.44
2023-01-27T09:58:42.669Z,5.37
2023-01-27T10:01:24.674Z,5.38
2023-01-27T10:04:20.221Z,5.40
2023-01-27T10:07:26.761Z,5.66
2023-01-27T10:09:57.122Z,5.32
2023-01-27T10:12:42.310Z,5.30
2023-01-27T10:15:34.608Z,5.69
2023-01-27T10:18:40.748Z,5.67
2023-01-27T10:21:21.772Z,5.45
2023-01-27T10:24:12.459Z,5.41
2023-01-27T10:26:52.199Z,5.90
2023-01-27T10:29:44.422Z,5.89
2023-01-27T10:32:35.566Z,5.59
2023-01-27T10:35:46.023Z,5.46
2023-01-27T10:39:08.370Z,5.42
2023-01-27T10:42:19.829Z,5.45
2023-01-27T10:45:04.028Z,5.91
2023-01-27T10:47:47.565Z,5.41
2023-01-27T10:55:28.236Z,6.65
2023-01-27T10:58:06.363Z,6.13
2023-01-27T11:05:42.540Z,7.08
2023-01-27T11:27:31.968Z,7.59
2023-01-27T11:30:29.917Z,7.55
2023-01-27T11:36:49.947Z,7.87
2023-01-27T11:39:23.458Z,8.01
2023-01-27T11:41:56.264Z,6.19
2023-01-27T11:44:30.308Z,7.04
2023-01-27T11:47:23.957Z,7.33
2023-01-27T11:50:00.800Z,7.72
2023-01-27T11:52:32.988Z,7.33
2023-01-27T11:55:51.304Z,7.44
2023-01-27T11:59:59.789Z,7.47
2023-01-27T12:02:50.243Z,7.19
2023-01-27T12:06:31.569Z,7.20
2023-01-27T12:09:06.180Z,6.51
2023-01-27T12:11:33.964Z,6.53
2023-01-27T12:14:04.130Z,6.61
2023-01-27T12:17:52.347Z,6.52
2023-01-27T12:21:56.854Z,6.86
2023-01-27T12:24:58.180Z,7.06
2023-01-27T12:28:49.987Z,7.06
2023-01-27T12:32:27.456Z,7.49
2023-01-27T12:35:09.811Z,7.80
2023-01-27T12:38:03.149Z,6.68
2023-01-27T12:58:42.134Z,6.89
2023-01-27T13:09:25.745Z,6.83
2023-01-27T13:41:53.025Z,7.35
2023-01-27T13:45:41.666Z,7.19
2023-01-27T14:16:11.007Z,6.97
2023-01-27T14:19:17.046Z,7.23
2023-01-27T14:22:29.657Z,7.51
2023-01-27T14:25:23.660Z,7.50
2023-01-27T14:28:45.263Z,7.12
2023-01-27T14:32:04.754Z,7.13
2023-01-27T14:34:50.641Z,7.39
2023-01-27T14:37:29.345Z,7.60
2023-01-27T14:40:08.795Z,7.83
2023-01-27T14:43:02.504Z,7.71
2023-01-27T14:45:40.114Z,7.64
2023-01-27T14:48:28.532Z,7.80
2023-01-27T14:51:06.962Z,7.57
2023-01-27T14:53:53.549Z,6.99
2023-01-27T14:57:05.884Z,6.93
2023-01-27T14:59:39.306Z,7.10
2023-01-27T15:02:40.671Z,7.26
2023-01-27T15:05:23.736Z,7.14
2023-01-27T15:08:05.627Z,7.03
2023-01-27T15:10:34.197Z,6.68
2023-01-27T15:13:48.768Z,6.92
2023-01-27T15:17:23.835Z,6.90
2023-01-27T15:27:21.181Z,6.39
2023-01-27T15:29:49.189Z,6.30
2023-01-27T15:32:19.006Z,5.98
2023-01-27T15:34:53.001Z,5.83
2023-01-27T15:37:28.467Z,5.71
2023-01-27T15:40:06.546Z,5.86
2023-01-27T15:42:52.704Z,5.70
2023-01-27T15:45:41.686Z,5.59
2023-01-27T15:48:20.888Z,5.49
2023-01-27T15:51:09.764Z,5.45
2023-01-27T16:06:32.050Z,5.16
2023-01-27T16:09:09.071Z,5.02
2023-01-27T16:11:42.019Z,4.73
2023-01-27T16:14:14.375Z,4.75
2023-01-27T16:16:50.599Z,4.81
2023-01-27T16:19:30.484Z,4.77
2023-01-27T16:22:13.122Z,4.48
2023-01-27T16:24:48.604Z,4.72
2023-01-27T16:27:28.172Z,4.39
2023-01-27T16:30:13.071Z,4.41
2023-01-27T16:32:51.790Z,4.56
2023-01-27T16:35:22.397Z,4.39
2023-01-27T16:38:14.837Z,3.98
2023-01-27T16:40:51.332Z,3.78
2023-01-27T16:43:23.603Z,3.81
2023-01-27T16:45:54.643Z,3.94
2023-01-27T16:48:47.164Z,3.75
2023-01-27T16:51:20.156Z,4.11
2023-01-27T16:53:50.512Z,4.01
2023-01-27T16:56:28.211Z,4.20
2023-01-27T16:59:09.084Z,3.86
2023-01-27T17:01:48.475Z,3.80
2023-01-27T17:04:27.364Z,3.85
2023-01-27T17:07:13.583Z,3.61
2023-01-27T17:09:45.680Z,3.67
2023-01-27T17:12:26.039Z,3.78
2023-01-27T17:14:54.123Z,3.70
2023-01-27T17:17:27.187Z,3.66
2023-01-27T17:20:06.795Z,3.83
2023-01-27T17:22:39.918Z,3.64
2023-01-27T17:25:29.648Z,3.47
2023-01-27T17:28:00.690Z,3.63
2023-01-27T17:30:39.686Z,3.75
2023-01-27T17:33:14.538Z,3.81
2023-01-27T17:35:43.177Z,3.81
2023-01-27T17:38:14.708Z,3.63
2023-01-27T17:40:45.550Z,3.60
2023-01-27T17:43:23.410Z,3.62
2023-01-27T17:46:09.715Z,3.44
2023-01-27T17:48:41.060Z,3.38
2023-01-27T17:51:12.960Z,3.24
2023-01-27T17:53:42.555Z,3.32
2023-01-27T17:56:28.106Z,3.29
2023-01-27T17:59:07.333Z,3.32
2023-01-27T18:01:35.793Z,3.05
2023-01-27T18:04:06.204Z,3.25
2023-01-27T18:06:34.005Z,3.33
2023-01-27T18:09:15.541Z,3.37
2023-01-27T18:11:59.497Z,3.44
2023-01-27T18:17:29.950Z,3.33
2023-01-27T18:19:57.639Z,3.46
2023-01-27T18:22:29.450Z,3.65
2023-01-27T18:25:05.520Z,3.44
2023-01-27T18:27:40.738Z,3.28
2023-01-27T18:30:41.018Z,3.26
2023-01-27T18:33:45.029Z,3.27
2023-01-27T18:36:24.396Z,3.28
2023-01-27T18:38:59.544Z,3.22
2023-01-27T18:41:38.323Z,3.22
2023-01-27T18:44:12.217Z,3.12
2023-01-27T18:47:34.208Z,3.28
2023-01-27T18:50:10.794Z,3.40
2023-01-27T18:53:11.886Z,3.44
2023-01-27T18:56:21.245Z,3.28
2023-01-27T19:00:12.087Z,3.36
2023-01-27T19:02:48.635Z,3.29
2023-01-27T19:06:01.570Z,3.27
2023-01-27T19:09:04.636Z,3.26
2023-01-27T19:11:47.106Z,3.40
2023-01-27T19:14:32.163Z,3.29
2023-01-27T19:18:49.042Z,3.34
2023-01-27T19:21:28.545Z,3.27
2023-01-27T19:24:15.946Z,3.17
2023-01-27T19:27:51.221Z,3.16
2023-01-27T19:31:39.039Z,3.22
2023-01-27T19:34:27.634Z,3.17
2023-01-27T19:42:53.320Z,3.12
2023-01-27T19:45:48.729Z,3.06
2023-01-27T19:48:21.965Z,3.04
2023-01-27T19:50:57.273Z,3.26
2023-01-27T19:54:39.029Z,3.08
2023-01-27T19:57:21.920Z,2.98
2023-01-27T19:59:55.149Z,3.02
2023-01-27T20:02:43.817Z,2.98
2023-01-27T20:05:16.681Z,2.85
2023-01-27T20:08:21.485Z,2.86
2023-01-27T20:14:55.564Z,2.83
2023-01-27T20:17:37.729Z,2.84
2023-01-27T20:20:05.843Z,2.72
2023-01-27T20:22:36.174Z,2.65
2023-01-27T20:28:32.565Z,2.69
2023-01-27T20:31:19.571Z,2.64
2023-01-27T20:33:52.580Z,2.63
2023-01-27T20:36:41.740Z,2.85
2023-01-27T20:42:29.245Z,2.49
2023-01-27T20:44:58.103Z,2.43
2023-01-27T20:47:55.300Z,2.44
2023-01-27T20:50:26.383Z,2.37
2023-01-27T20:53:11.774Z,2.41
2023-01-27T20:55:42.167Z,2.40
2023-01-27T20:58:37.481Z,2.33
2023-01-27T21:01:23.357Z,2.36
2023-01-27T21:04:18.077Z,2.16
2023-01-27T21:06:51.829Z,2.13
2023-01-27T21:09:34.124Z,2.15
2023-01-27T21:12:17.510Z,2.16
2023-01-27T21:15:07.812Z,2.24
2023-01-27T21:18:16.837Z,2.16
2023-01-27T21:21:29.335Z,2.05
2023-01-27T21:24:05.097Z,1.90
2023-01-27T21:26:42.216Z,1.83
2023-01-27T21:29:11.845Z,1.77
2023-01-27T21:31:40.344Z,1.72
2023-01-27T21:34:12.001Z,1.71
2023-01-27T21:36:45.069Z,1.79
2023-01-27T21:39:15.096Z,2.08
2023-01-27T21:42:05.349Z,2.17
2023-01-27T21:44:51.847Z,1.97
2023-01-27T21:47:20.456Z,1.97
2023-01-27T21:50:00.714Z,1.81
2023-01-27T21:52:36.493Z,1.70
2023-01-27T21:55:31.611Z,1.74
2023-01-27T21:58:04.955Z,1.67
2023-01-27T22:00:43.433Z,1.74
2023-01-27T22:03:30.035Z,1.95
2023-01-27T22:06:21.681Z,2.03
2023-01-27T22:09:11.533Z,1.92
2023-01-27T22:11:52.373Z,1.71
2023-01-27T22:14:19.938Z,1.76
2023-01-27T22:17:08.667Z,1.70
2023-01-27T22:20:01.192Z,1.69
2023-01-27T22:22:33.094Z,1.59
2023-01-27T22:25:13.182Z,1.85
2023-01-27T22:28:02.417Z,1.95
2023-01-27T22:30:43.422Z,1.86
2023-01-27T22:33:32.755Z,1.96
2023-01-27T22:36:05.878Z,1.99
2023-01-27T22:38:42.554Z,2.06
2023-01-27T22:41:22.752Z,2.14
2023-01-27T22:44:04.871Z,2.18
2023-01-27T22:46:48.268Z,2.35
2023-01-27T22:49:26.091Z,2.20
2023-01-27T22:51:59.426Z,2.24
2023-01-27T22:54:27.107Z,2.30
2023-01-27T22:57:16.665Z,2.34
2023-01-27T23:00:06.168Z,2.42
2023-01-27T23:02:44.270Z,2.61
2023-01-27T23:05:17.070Z,2.60
2023-01-27T23:07:51.103Z,2.49
2023-01-27T23:10:23.999Z,2.43
2023-01-27T23:12:51.517Z,2.43
2023-01-27T23:15:19.282Z,2.38
2023-01-27T23:17:48.719Z,2.22
2023-01-27T23:20:17.150Z,2.56
2023-01-27T23:22:45.071Z,2.52
2023-01-27T23:25:17.561Z,2.09
2023-01-27T23:27:48.947Z,2.04
2023-01-27T23:30:20.161Z,2.04
2023-01-27T23:32:51.153Z,2.38
2023-01-27T23:35:22.174Z,2.40
2023-01-27T23:37:49.737Z,2.42
2023-01-27T23:40:17.571Z,2.40
2023-01-27T23:42:45.109Z,2.38
2023-01-27T23:45:13.375Z,2.47
2023-01-27T23:47:41.290Z,2.47
2023-01-27T23:50:11.494Z,2.33
2023-01-27T23:52:40.219Z,2.46
2023-01-27T23:55:19.619Z,2.57
2023-01-27T23:57:52.169Z,2.48
